Time;durP1;ratioP1;P1;durP2;ratioP2;P2;SDS_P1;SDS_P2;PMS_P1;PMS_P2;Temp;Humidity;BMP_temperature;BMP_pressure;BME280_temperature;BME280_humidity;BME280_pressure;Samples;Min_cycle;Max_cycle;Signal;HPM_P1;HPM_P2
2023/07/25 00:02:23;;;;;;;6.68;2.00;;;22.50;99.90;;;;;;10062615;28;20116;-69
2023/07/25 00:07:14;;;;;;;3.35;2.35;;;22.40;99.90;;;;;;10065048;28;20018;-69
2023/07/25 00:12:04;;;;;;;3.42;1.98;;;22.40;99.90;;;;;;10065376;28;20047;-69
2023/07/25 00:16:55;;;;;;;3.08;1.70;;;22.30;99.90;;;;;;10060013;28;20033;-69
2023/07/25 00:21:46;;;;;;;3.15;1.90;;;22.50;99.90;;;;;;10059529;28;20171;-69
2023/07/25 00:26:36;;;;;;;2.50;1.67;;;22.80;99.90;;;;;;10059102;28;20241;-70
2023/07/25 00:31:27;;;;;;;2.60;1.48;;;22.60;99.90;;;;;;10064715;28;20501;-68
2023/07/25 00:36:17;;;;;;;3.55;1.75;;;22.40;99.90;;;;;;10060376;28;20495;-69
2023/07/25 00:41:08;;;;;;;6.30;2.17;;;22.50;99.90;;;;;;10059238;28;20037;-69
2023/07/25 00:45:59;;;;;;;2.65;1.67;;;22.30;99.90;;;;;;10058710;28;20036;-68
2023/07/25 00:50:50;;;;;;;2.10;1.60;;;22.20;99.90;;;;;;10058437;28;20508;-69
2023/07/25 00:55:41;;;;;;;3.15;2.00;;;22.30;99.90;;;;;;10058489;28;20091;-68
2023/07/25 01:00:32;;;;;;;3.38;2.25;;;22.30;99.90;;;;;;10058866;28;20030;-68
2023/07/25 01:05:23;;;;;;;3.75;1.85;;;22.30;99.90;;;;;;10056831;28;20044;-69
2023/07/25 01:10:14;;;;;;;3.85;1.95;;;22.30;99.90;;;;;;10065214;28;20036;-68
2023/07/25 01:15:05;;;;;;;4.15;1.98;;;22.30;99.90;;;;;;10061502;28;20091;-69
2023/07/25 01:19:57;;;;;;;2.88;1.90;;;22.30;99.90;;;;;;10057956;28;20511;-68
2023/07/25 01:24:48;;;;;;;2.75;2.00;;;22.30;99.90;;;;;;10059729;28;20047;-69
2023/07/25 01:29:38;;;;;;;3.03;1.48;;;22.20;99.90;;;;;;10062208;28;20025;-69
2023/07/25 01:34:29;;;;;;;3.10;1.83;;;22.20;99.90;;;;;;10057024;28;20188;-68
2023/07/25 01:39:20;;;;;;;3.22;2.05;;;22.10;99.90;;;;;;10057083;28;20044;-68
2023/07/25 01:44:10;;;;;;;3.22;1.80;;;22.20;99.90;;;;;;10072862;28;20315;-68
2023/07/25 01:49:01;;;;;;;5.25;2.05;;;22.20;99.90;;;;;;10056170;28;20028;-69
2023/07/25 01:53:53;;;;;;;5.28;2.13;;;22.20;99.90;;;;;;10055082;28;20045;-69
2023/07/25 01:58:44;;;;;;;4.32;2.17;;;22.20;99.90;;;;;;10057155;28;20538;-68
2023/07/25 02:03:35;;;;;;;3.50;2.10;;;22.00;99.90;;;;;;10054015;28;20061;-68
2023/07/25 02:08:25;;;;;;;4.18;2.20;;;21.90;99.90;;;;;;10058771;28;20053;-68
2023/07/25 02:13:16;;;;;;;4.20;1.98;;;22.10;99.90;;;;;;10058520;28;20037;-68
2023/07/25 02:18:06;;;;;;;2.08;1.30;;;22.10;99.90;;;;;;10056495;28;20178;-69
2023/07/25 02:22:58;;;;;;;2.53;1.30;;;22.00;99.90;;;;;;10056146;28;20025;-68
2023/07/25 02:27:48;;;;;;;2.35;1.40;;;21.90;99.90;;;;;;10056398;28;20076;-69
2023/07/25 02:32:39;;;;;;;1.67;1.38;;;21.90;99.90;;;;;;10056897;28;20038;-69
2023/07/25 02:37:30;;;;;;;2.08;1.15;;;21.80;99.90;;;;;;10056596;28;20021;-67
2023/07/25 02:42:20;;;;;;;2.67;1.20;;;21.70;99.90;;;;;;10062600;28;20044;-68
2023/07/25 02:47:11;;;;;;;1.58;1.08;;;21.60;99.90;;;;;;10061786;28;20075;-68
2023/07/25 02:52:02;;;;;;;1.50;0.98;;;21.40;99.90;;;;;;10069035;28;20074;-70
2023/07/25 02:56:52;;;;;;;2.63;1.50;;;21.50;99.90;;;;;;10065712;28;20441;-69
2023/07/25 03:01:43;;;;;;;1.38;1.02;;;21.60;99.90;;;;;;10062640;28;20045;-68
2023/07/25 03:06:33;;;;;;;1.48;0.95;;;21.40;99.90;;;;;;10060015;28;20025;-69
2023/07/25 03:11:24;;;;;;;1.70;1.02;;;21.40;99.90;;;;;;10067812;28;20033;-69
2023/07/25 03:16:15;;;;;;;2.05;1.33;;;21.50;99.90;;;;;;10061748;28;20033;-69
2023/07/25 03:21:05;;;;;;;0.77;0.70;;;21.50;99.90;;;;;;10062030;28;20037;-69
2023/07/25 03:25:56;;;;;;;2.90;1.10;;;21.40;99.90;;;;;;10062443;28;20030;-69
2023/07/25 03:30:47;;;;;;;1.35;0.90;;;21.30;99.90;;;;;;10062643;28;20037;-68
2023/07/25 03:35:37;;;;;;;2.63;1.52;;;21.30;99.90;;;;;;10061552;28;20034;-68
2023/07/25 03:40:28;;;;;;;1.92;1.73;;;21.30;99.90;;;;;;10061918;28;20030;-68
2023/07/25 03:45:18;;;;;;;2.83;1.80;;;21.30;99.90;;;;;;10061330;28;20045;-68
2023/07/25 03:50:09;;;;;;;2.10;1.05;;;21.20;99.90;;;;;;10061809;28;20045;-68
2023/07/25 03:55:00;;;;;;;2.00;1.25;;;21.10;99.90;;;;;;10060730;28;20312;-69
2023/07/25 03:59:50;;;;;;;1.42;1.00;;;21.10;99.90;;;;;;10076338;28;20044;-69
2023/07/25 04:04:41;;;;;;;1.52;1.20;;;21.00;99.90;;;;;;10063410;28;20379;-68
2023/07/25 04:09:31;;;;;;;1.80;0.90;;;21.00;99.90;;;;;;10066179;28;20033;-69
2023/07/25 04:14:22;;;;;;;1.60;0.88;;;21.00;99.90;;;;;;10059564;28;20030;-69
2023/07/25 04:19:13;;;;;;;2.22;0.98;;;20.90;99.90;;;;;;10060653;28;20029;-67
2023/07/25 04:24:05;;;;;;;1.38;0.95;;;20.80;99.90;;;;;;10075044;28;20034;-68
2023/07/25 04:28:55;;;;;;;2.40;1.13;;;20.90;99.90;;;;;;10075311;28;20156;-68
2023/07/25 04:33:46;;;;;;;2.08;1.10;;;20.90;99.90;;;;;;10062971;28;20127;-68
2023/07/25 04:38:37;;;;;;;2.67;1.10;;;21.00;99.90;;;;;;10060010;28;20633;-70
2023/07/25 04:43:27;;;;;;;3.22;1.70;;;21.10;99.90;;;;;;10059544;28;20043;-68
2023/07/25 04:48:18;;;;;;;2.55;1.70;;;21.00;99.90;;;;;;10059666;28;20049;-68
2023/07/25 04:53:08;;;;;;;3.33;1.98;;;21.10;99.90;;;;;;10058501;28;20049;-69
2023/07/25 04:57:59;;;;;;;2.90;1.60;;;20.90;99.90;;;;;;10058980;28;20128;-69
2023/07/25 05:02:50;;;;;;;3.88;2.55;;;20.80;99.90;;;;;;10062533;28;20029;-68
2023/07/25 05:07:40;;;;;;;5.30;1.70;;;20.90;99.90;;;;;;10052749;28;20065;-69
2023/07/25 05:12:31;;;;;;;2.63;1.52;;;21.10;99.90;;;;;;10061216;28;20040;-68
2023/07/25 05:17:21;;;;;;;3.80;1.90;;;21.00;99.90;;;;;;10059960;28;20037;-69
2023/07/25 05:22:12;;;;;;;5.47;2.65;;;21.10;99.90;;;;;;10058958;28;20036;-69
2023/07/25 05:27:03;;;;;;;2.33;1.65;;;20.90;99.90;;;;;;10058855;28;20547;-68
2023/07/25 05:31:53;;;;;;;3.30;1.80;;;21.00;99.90;;;;;;10056031;28;20045;-68
2023/07/25 05:36:44;;;;;;;3.05;1.58;;;21.00;99.90;;;;;;10056689;28;20095;-69
2023/07/25 05:41:35;;;;;;;3.67;2.13;;;21.00;99.90;;;;;;10057051;28;20034;-68
2023/07/25 05:46:25;;;;;;;3.88;2.20;;;21.10;99.90;;;;;;10054825;28;20045;-69
2023/07/25 05:51:16;;;;;;;3.08;2.10;;;20.90;99.90;;;;;;10055164;28;20328;-69
2023/07/25 05:56:06;;;;;;;2.67;2.05;;;21.00;99.90;;;;;;10053844;28;20311;-69
2023/07/25 06:00:57;;;;;;;3.88;1.88;;;21.00;99.90;;;;;;10056742;28;20037;-69
2023/07/25 06:05:48;;;;;;;6.00;2.33;;;21.00;99.90;;;;;;10056432;28;20040;-70
2023/07/25 06:10:39;;;;;;;3.60;2.47;;;21.10;99.90;;;;;;10071115;28;20056;-69
2023/07/25 06:15:33;;;;;;;4.18;2.50;;;21.10;99.90;;;;;;10058093;28;20053;-70
2023/07/25 06:20:24;;;;;;;3.10;2.10;;;21.00;99.90;;;;;;10059917;28;20253;-70
2023/07/25 06:25:15;;;;;;;4.57;2.03;;;21.10;99.90;;;;;;10084649;28;20539;-68
2023/07/25 06:30:06;;;;;;;5.05;2.05;;;21.10;99.90;;;;;;10064319;28;20044;-66
2023/07/25 06:34:57;;;;;;;2.42;1.73;;;21.20;99.90;;;;;;10063745;28;20517;-66
2023/07/25 06:39:47;;;;;;;3.50;2.10;;;21.20;99.90;;;;;;10064238;28;20033;-68
2023/07/25 06:44:38;;;;;;;3.75;2.05;;;21.10;99.90;;;;;;10063873;28;20041;-67
2023/07/25 06:49:29;;;;;;;3.80;1.95;;;21.10;99.90;;;;;;10063409;28;20029;-66
2023/07/25 06:54:20;;;;;;;2.58;1.65;;;21.00;99.90;;;;;;10071333;28;20140;-68
2023/07/25 06:59:10;;;;;;;3.97;2.17;;;21.10;99.90;;;;;;10060488;28;20053;-66
2023/07/25 07:04:01;;;;;;;4.35;1.95;;;21.10;99.90;;;;;;10064086;28;20045;-66
2023/07/25 07:08:52;;;;;;;6.82;2.25;;;21.20;99.90;;;;;;10065663;28;20029;-70
2023/07/25 07:13:42;;;;;;;4.28;2.67;;;21.10;99.90;;;;;;10061476;28;20033;-67
2023/07/25 07:18:33;;;;;;;3.20;1.67;;;21.20;99.90;;;;;;10060053;28;20033;-66
2023/07/25 07:23:24;;;;;;;4.15;2.05;;;21.10;99.90;;;;;;10059428;28;20061;-66
2023/07/25 07:28:14;;;;;;;2.15;1.40;;;21.10;99.90;;;;;;10059857;28;20507;-66
2023/07/25 07:33:05;;;;;;;2.85;1.27;;;21.10;99.90;;;;;;10059521;28;20410;-66
2023/07/25 07:37:56;;;;;;;2.05;1.40;;;21.20;99.90;;;;;;10059065;28;20040;-68
2023/07/25 07:42:46;;;;;;;3.40;1.17;;;21.20;99.90;;;;;;10059784;28;20037;-66
2023/07/25 07:47:37;;;;;;;2.65;1.48;;;21.30;99.90;;;;;;10058772;28;20259;-66
2023/07/25 07:52:27;;;;;;;2.00;1.42;;;21.40;99.90;;;;;;10021870;28;1106941;-72
2023/07/25 07:57:18;;;;;;;2.63;1.35;;;21.40;99.90;;;;;;10059859;28;20033;-66
2023/07/25 08:02:09;;;;;;;3.80;1.45;;;21.60;99.90;;;;;;10063411;28;20033;-67
2023/07/25 08:06:59;;;;;;;1.90;1.20;;;21.70;99.90;;;;;;10059722;28;20059;-66
2023/07/25 08:11:50;;;;;;;2.40;1.40;;;21.80;99.90;;;;;;10083310;28;20052;-67
2023/07/25 08:16:41;;;;;;;5.78;2.78;;;21.80;99.90;;;;;;10063650;28;20029;-67
2023/07/25 08:21:31;;;;;;;2.05;1.30;;;21.70;99.90;;;;;;10059985;28;20056;-65
2023/07/25 08:26:22;;;;;;;2.67;1.60;;;21.60;99.90;;;;;;10059636;28;20109;-66
2023/07/25 08:31:12;;;;;;;3.63;1.52;;;21.60;99.90;;;;;;10060334;28;20041;-75
2023/07/25 08:36:03;;;;;;;4.10;1.58;;;21.40;99.90;;;;;;10076961;28;20032;-68
2023/07/25 08:41:19;;;;;;;5.10;1.67;;;21.10;99.90;;;;;;10066460;28;20476;-68
2023/07/25 08:46:12;;;;;;;4.15;1.88;;;20.90;99.90;;;;;;10065192;28;20037;-68
2023/07/25 08:51:05;;;;;;;2.50;1.55;;;20.50;99.90;;;;;;10058378;28;20052;-67
2023/07/25 08:55:57;;;;;;;2.80;1.75;;;20.50;99.90;;;;;;10073129;28;20037;-66
2023/07/25 09:00:48;;;;;;;3.83;2.03;;;20.60;99.90;;;;;;10064859;28;20036;-69
2023/07/25 09:05:39;;;;;;;2.88;1.92;;;20.90;99.90;;;;;;10057712;28;20033;-74
2023/07/25 09:10:30;;;;;;;4.85;1.70;;;21.10;99.90;;;;;;10064234;28;20021;-67
2023/07/25 09:15:21;;;;;;;2.45;1.20;;;21.20;99.90;;;;;;10069468;28;20073;-66
2023/07/25 09:20:12;;;;;;;1.63;1.17;;;21.40;99.90;;;;;;10057579;28;20507;-66
2023/07/25 09:25:08;;;;;;;2.40;1.30;;;21.40;99.90;;;;;;10057092;28;20044;-69
2023/07/25 09:29:58;;;;;;;3.45;1.70;;;21.50;99.90;;;;;;10063878;28;20040;-66
2023/07/25 09:34:59;;;;;;;2.40;1.52;;;21.60;99.90;;;;;;10056958;28;20045;-67
2023/07/25 09:39:50;;;;;;;1.83;1.30;;;21.80;99.90;;;;;;10059799;28;20025;-76
2023/07/25 09:44:48;;;;;;;1.65;1.02;;;21.90;99.90;;;;;;10056931;28;20036;-68
2023/07/25 09:49:47;;;;;;;4.43;1.40;;;21.90;99.90;;;;;;10057049;28;20033;-68
2023/07/25 09:54:38;;;;;;;1.67;1.00;;;22.10;99.90;;;;;;10057651;28;20067;-70
2023/07/25 09:59:29;;;;;;;1.75;1.45;;;22.20;99.90;;;;;;10057271;28;20462;-67
2023/07/25 10:04:22;;;;;;;1.85;0.80;;;22.20;99.90;;;;;;10057191;28;20029;-73
2023/07/25 10:09:13;;;;;;;2.90;1.40;;;22.30;99.90;;;;;;10060965;28;20033;-67
2023/07/25 10:14:04;;;;;;;1.60;0.90;;;22.30;99.90;;;;;;10058156;28;20053;-75
2023/07/25 10:18:58;;;;;;;1.23;0.70;;;22.30;99.90;;;;;;10063949;28;20040;-71
2023/07/25 10:23:57;;;;;;;1.48;0.88;;;22.10;99.90;;;;;;10061790;28;20065;-72
2023/07/25 10:28:47;;;;;;;0.75;0.60;;;21.90;99.90;;;;;;10049244;28;20033;-66
2023/07/25 10:33:38;;;;;;;1.55;0.70;;;21.90;99.90;;;;;;10056106;28;20515;-68
2023/07/25 10:38:30;;;;;;;4.00;0.70;;;21.90;99.90;;;;;;10055197;28;20525;-67
2023/07/25 10:43:25;;;;;;;1.80;0.93;;;22.00;99.90;;;;;;10056384;28;20219;-68
2023/07/25 10:48:35;;;;;;;;;;;22.10;99.90;;;;;;10055823;28;20033;-69
2023/07/25 10:53:26;;;;;;;1.10;0.95;;;22.10;99.90;;;;;;10054894;28;19929;-69
2023/07/25 10:58:17;;;;;;;1.60;1.20;;;22.10;99.90;;;;;;10055480;28;20044;-69
2023/07/25 11:03:29;;;;;;;1.73;0.80;;;22.20;99.90;;;;;;10055069;28;20502;-71
2023/07/25 11:08:21;;;;;;;1.75;1.30;;;22.20;99.90;;;;;;10065724;28;20179;-68
2023/07/25 11:13:11;;;;;;;1.20;0.70;;;22.40;99.90;;;;;;10058117;28;20045;-67
2023/07/25 11:18:08;;;;;;;4.57;1.33;;;22.60;99.90;;;;;;10063057;28;20025;-68
2023/07/25 11:22:59;;;;;;;0.80;0.60;;;22.50;99.90;;;;;;10061455;28;20029;-68
2023/07/25 11:27:51;;;;;;;4.90;2.00;;;22.20;99.90;;;;;;10061849;28;20490;-68
2023/07/25 11:32:48;;;;;;;3.83;2.13;;;21.80;99.90;;;;;;10061461;28;20594;-68
2023/07/25 11:37:40;;;;;;;1.70;1.30;;;21.40;99.90;;;;;;10061839;28;20067;-68
2023/07/25 11:42:31;;;;;;;2.90;1.00;;;21.30;99.90;;;;;;10061662;28;20037;-70
2023/07/25 11:47:21;;;;;;;0.80;0.57;;;21.30;99.90;;;;;;10055312;28;20437;-68
2023/07/25 11:52:12;;;;;;;0.77;0.73;;;21.30;99.90;;;;;;10060106;28;20137;-68
2023/07/25 11:57:06;;;;;;;1.98;1.02;;;21.50;99.90;;;;;;10059721;28;20025;-72
2023/07/25 12:02:05;;;;;;;1.48;0.70;;;21.70;99.90;;;;;;10054950;28;20025;-72
2023/07/25 12:06:58;;;;;;;1.65;0.85;;;21.60;99.90;;;;;;10058126;28;20037;-70
2023/07/25 12:11:49;;;;;;;0.40;0.40;;;21.70;99.90;;;;;;10057986;28;20512;-72
2023/07/25 12:16:44;;;;;;;1.52;0.90;;;22.00;99.90;;;;;;10052486;28;20128;-68
2023/07/25 12:21:37;;;;;;;1.33;0.50;;;22.00;99.90;;;;;;10060282;28;20049;-71
2023/07/25 12:26:28;;;;;;;1.08;0.60;;;21.90;99.90;;;;;;10060299;28;20206;-71
2023/07/25 12:31:19;;;;;;;1.45;0.60;;;21.70;99.90;;;;;;10059290;28;20431;-70
2023/07/25 12:36:10;;;;;;;1.45;0.65;;;21.60;99.90;;;;;;10066063;28;20041;-67
2023/07/25 12:41:01;;;;;;;1.58;0.82;;;21.60;99.90;;;;;;10066955;28;20045;-70
2023/07/25 12:45:51;;;;;;;2.05;0.68;;;21.70;99.90;;;;;;10058047;28;20025;-71
2023/07/25 12:50:42;;;;;;;1.08;0.52;;;21.60;99.90;;;;;;10057068;28;20057;-73
2023/07/25 12:55:34;;;;;;;2.30;0.90;;;21.70;99.90;;;;;;10057295;28;20048;-70
2023/07/25 13:00:25;;;;;;;3.30;1.20;;;21.70;99.90;;;;;;10058280;28;20018;-70
2023/07/25 13:05:15;;;;;;;1.67;0.80;;;21.70;99.90;;;;;;10058551;28;20037;-68
2023/07/25 13:10:06;;;;;;;1.60;0.80;;;21.70;99.90;;;;;;10064891;28;20034;-69
2023/07/25 13:14:57;;;;;;;7.47;1.25;;;21.60;99.90;;;;;;10060043;28;20042;-69
2023/07/25 13:19:48;;;;;;;2.50;0.90;;;21.50;99.90;;;;;;10061518;28;20068;-67
2023/07/25 13:24:38;;;;;;;2.17;0.73;;;20.30;99.90;;;;;;10057087;28;20466;-67
2023/07/25 13:29:29;;;;;;;3.05;1.10;;;19.80;99.90;;;;;;10056724;28;20025;-67
2023/07/25 13:34:19;;;;;;;1.77;0.90;;;19.70;99.90;;;;;;10061359;28;20045;-67
2023/07/25 13:39:10;;;;;;;3.85;1.38;;;19.70;99.90;;;;;;10057923;28;20135;-67
2023/07/25 13:44:01;;;;;;;3.08;1.15;;;19.70;99.90;;;;;;10056507;28;20029;-65
2023/07/25 13:48:51;;;;;;;2.75;1.00;;;19.60;99.90;;;;;;10055981;28;20083;-66
2023/07/25 13:53:42;;;;;;;1.70;1.10;;;19.60;99.90;;;;;;10057381;28;20075;-69
2023/07/25 13:58:32;;;;;;;1.38;0.60;;;19.50;99.90;;;;;;10054558;28;20035;-69
2023/07/25 14:03:23;;;;;;;2.42;1.02;;;19.50;99.90;;;;;;10056764;28;20108;-69
2023/07/25 14:08:14;;;;;;;3.10;1.23;;;19.40;99.90;;;;;;10059009;28;20048;-67
2023/07/25 14:13:05;;;;;;;1.88;1.10;;;19.30;99.90;;;;;;10079617;28;20040;-66
2023/07/25 14:17:55;;;;;;;1.73;0.98;;;19.20;99.90;;;;;;10055176;28;20025;-66
2023/07/25 14:22:46;;;;;;;2.38;1.10;;;19.00;99.90;;;;;;10055736;28;20029;-67
2023/07/25 14:27:36;;;;;;;0.73;0.65;;;19.10;99.90;;;;;;10056071;28;20028;-68
2023/07/25 14:32:27;;;;;;;4.22;2.35;;;19.30;99.90;;;;;;10054481;28;20098;-69
2023/07/25 14:37:18;;;;;;;1.58;1.20;;;19.30;99.90;;;;;;10054258;28;20033;-69
2023/07/25 14:42:09;;;;;;;0.95;0.85;;;19.40;99.90;;;;;;10060189;28;20041;-71
2023/07/25 14:46:59;;;;;;;1.98;1.50;;;19.40;99.90;;;;;;10063331;28;20212;-72
2023/07/25 14:51:50;;;;;;;2.30;1.10;;;19.60;99.90;;;;;;10063554;28;20041;-67
2023/07/25 14:56:41;;;;;;;2.80;0.90;;;19.80;99.90;;;;;;10067077;28;20041;-68
2023/07/25 15:01:31;;;;;;;2.22;0.95;;;19.80;99.90;;;;;;10065198;28;20029;-68
2023/07/25 15:06:22;;;;;;;1.48;0.57;;;19.80;99.90;;;;;;10063197;28;20033;-67
2023/07/25 15:11:14;;;;;;;1.48;0.90;;;19.70;99.90;;;;;;10079620;28;20029;-68
2023/07/25 15:16:05;;;;;;;1.90;0.88;;;19.90;99.90;;;;;;10062229;28;20022;-68
2023/07/25 15:20:56;;;;;;;1.80;0.70;;;20.00;99.90;;;;;;10062645;28;20451;-68
2023/07/25 15:25:47;;;;;;;1.30;0.85;;;20.00;99.90;;;;;;10061388;28;20029;-71
2023/07/25 15:30:37;;;;;;;2.63;1.00;;;19.90;99.90;;;;;;10060467;28;20464;-68
2023/07/25 15:35:28;;;;;;;1.13;0.60;;;19.90;99.90;;;;;;10076029;28;20044;-68
2023/07/25 15:40:19;;;;;;;0.73;0.52;;;19.70;99.90;;;;;;10061501;28;20112;-68
2023/07/25 15:45:09;;;;;;;1.30;0.50;;;19.20;99.90;;;;;;10060740;28;20049;-69
2023/07/25 15:50:00;;;;;;;1.25;0.50;;;19.10;99.90;;;;;;10053265;28;20490;-68
2023/07/25 15:54:50;;;;;;;0.95;0.50;;;18.90;99.90;;;;;;10060396;28;20459;-68
2023/07/25 15:59:41;;;;;;;1.15;0.63;;;19.00;99.90;;;;;;10061094;28;20030;-68
2023/07/25 16:04:32;;;;;;;0.93;0.40;;;18.80;99.90;;;;;;10062327;28;20526;-68
2023/07/25 16:09:22;;;;;;;0.75;0.50;;;18.80;99.90;;;;;;10076364;28;20025;-69
2023/07/25 16:14:13;;;;;;;1.73;1.02;;;18.90;99.90;;;;;;10065021;28;20507;-67
2023/07/25 16:19:03;;;;;;;0.98;0.75;;;19.10;99.90;;;;;;10060069;28;20025;-67
2023/07/25 16:23:54;;;;;;;1.48;0.70;;;19.20;99.90;;;;;;10060244;28;20029;-68
2023/07/25 16:28:46;;;;;;;0.80;0.60;;;19.40;99.90;;;;;;10066995;28;20026;-68
2023/07/25 16:33:37;;;;;;;1.90;0.73;;;19.50;99.90;;;;;;10059486;28;20070;-68
2023/07/25 16:38:27;;;;;;;1.95;0.93;;;19.50;99.90;;;;;;10059782;28;20033;-66
2023/07/25 16:43:18;;;;;;;2.45;0.90;;;19.40;99.90;;;;;;10060777;28;20025;-68
2023/07/25 16:48:09;;;;;;;1.65;0.90;;;19.40;99.90;;;;;;10057945;28;20037;-68
2023/07/25 16:53:00;;;;;;;1.52;0.73;;;19.50;99.90;;;;;;10051980;28;20064;-69
2023/07/25 16:57:51;;;;;;;0.90;0.70;;;19.50;99.90;;;;;;10055564;28;21822;-70
2023/07/25 17:02:42;;;;;;;1.15;0.80;;;19.60;99.90;;;;;;10056061;28;20113;-67
2023/07/25 17:07:32;;;;;;;1.15;0.70;;;19.50;99.90;;;;;;10044905;28;20025;-70
2023/07/25 17:12:23;;;;;;;1.20;0.70;;;19.40;99.90;;;;;;10061405;28;20041;-68
2023/07/25 17:17:14;;;;;;;1.95;0.90;;;19.40;99.90;;;;;;10057635;28;20033;-69
2023/07/25 17:22:05;;;;;;;2.92;1.42;;;19.50;99.90;;;;;;10062102;28;20029;-71
2023/07/25 17:26:56;;;;;;;3.10;1.50;;;19.30;99.90;;;;;;10052728;28;20191;-69
2023/07/25 17:31:47;;;;;;;3.20;1.50;;;19.30;99.90;;;;;;10063186;28;20623;-70
2023/07/25 17:36:37;;;;;;;1.77;1.13;;;19.30;99.90;;;;;;10059682;28;20055;-68
2023/07/25 17:41:29;;;;;;;3.45;1.90;;;19.30;99.90;;;;;;10062355;28;20030;-68
2023/07/25 17:46:19;;;;;;;2.75;2.25;;;19.10;99.90;;;;;;10056312;28;20076;-68
2023/07/25 17:51:10;;;;;;;2.55;1.92;;;19.10;99.90;;;;;;10046011;28;20060;-68
2023/07/25 17:56:01;;;;;;;4.25;2.20;;;19.10;99.90;;;;;;10052196;28;20065;-68
2023/07/25 18:00:52;;;;;;;5.32;3.28;;;19.10;99.90;;;;;;10055618;28;20025;-68
2023/07/25 18:05:45;;;;;;;3.88;2.80;;;19.20;99.90;;;;;;10057585;28;20475;-70
2023/07/25 18:10:35;;;;;;;6.45;3.03;;;19.20;99.90;;;;;;10069657;28;20064;-71
2023/07/25 18:15:26;;;;;;;5.97;3.72;;;19.10;99.90;;;;;;10058788;28;20415;-69
2023/07/25 18:20:17;;;;;;;6.35;3.03;;;19.10;99.90;;;;;;10067364;28;20263;-71
2023/07/25 18:25:08;;;;;;;3.80;2.58;;;19.10;99.90;;;;;;10068356;28;20491;-72
2023/07/25 18:29:59;;;;;;;6.30;3.58;;;19.30;99.90;;;;;;10080298;28;20022;-71
2023/07/25 18:34:51;;;;;;;4.60;3.42;;;19.40;99.90;;;;;;10077271;28;20515;-72
2023/07/25 18:39:41;;;;;;;3.65;2.80;;;19.30;99.90;;;;;;10062143;28;20070;-73
2023/07/25 18:44:32;;;;;;;4.30;2.97;;;19.20;99.90;;;;;;10061981;28;20120;-73
2023/07/25 18:49:23;;;;;;;6.20;3.00;;;19.00;99.90;;;;;;10064948;28;20025;-72
2023/07/25 18:54:14;;;;;;;4.50;3.00;;;19.10;99.90;;;;;;10054179;28;20139;-73
2023/07/25 18:59:06;;;;;;;5.95;3.47;;;19.00;99.90;;;;;;10066974;28;20104;-73
2023/07/25 19:03:57;;;;;;;6.18;3.58;;;19.00;99.90;;;;;;10070417;28;20044;-74
2023/07/25 19:08:47;;;;;;;7.88;3.80;;;19.10;99.90;;;;;;10067209;28;20494;-72
2023/07/25 19:13:38;;;;;;;5.13;3.50;;;19.10;99.90;;;;;;10062061;28;20065;-73
2023/07/25 19:18:29;;;;;;;6.15;3.72;;;19.20;99.90;;;;;;10064096;28;20099;-73
2023/07/25 19:23:20;;;;;;;8.10;4.20;;;19.00;99.90;;;;;;10060884;28;20415;-74
2023/07/25 19:28:11;;;;;;;5.63;4.35;;;18.90;99.90;;;;;;10058879;28;20037;-72
2023/07/25 19:33:02;;;;;;;6.07;3.78;;;18.90;99.90;;;;;;10064015;28;20048;-72
2023/07/25 19:37:53;;;;;;;7.88;4.88;;;18.90;99.90;;;;;;10061209;28;20410;-72
2023/07/25 19:42:43;;;;;;;8.45;4.78;;;18.90;99.90;;;;;;10060829;28;20037;-72
2023/07/25 19:47:34;;;;;;;6.30;4.50;;;18.80;99.90;;;;;;10061208;28;20088;-72
2023/07/25 19:52:25;;;;;;;8.18;4.70;;;19.00;99.90;;;;;;10060608;28;20045;-72
2023/07/25 19:57:15;;;;;;;7.00;4.43;;;18.90;99.90;;;;;;10060644;28;20105;-70
2023/07/25 20:02:07;;;;;;;9.05;4.35;;;18.80;99.90;;;;;;10054178;28;20461;-70
2023/07/25 20:06:58;;;;;;;5.93;4.57;;;18.90;99.90;;;;;;10062193;28;20859;-70
2023/07/25 20:11:48;;;;;;;5.97;4.57;;;18.90;99.90;;;;;;10059695;28;20034;-71
2023/07/25 20:16:39;;;;;;;6.43;4.20;;;18.90;99.90;;;;;;10061683;28;20112;-71
2023/07/25 20:21:30;;;;;;;5.97;3.45;;;19.00;99.90;;;;;;10060514;28;20399;-69
2023/07/25 20:26:21;;;;;;;5.65;4.03;;;19.00;99.90;;;;;;10059063;28;20033;-70
2023/07/25 20:31:12;;;;;;;7.07;4.57;;;19.00;99.90;;;;;;10062219;28;20033;-69
2023/07/25 20:36:03;;;;;;;5.35;3.90;;;19.10;99.90;;;;;;10064903;28;20379;-70
2023/07/25 20:40:54;;;;;;;4.65;3.92;;;19.00;99.90;;;;;;10063715;28;20029;-69
2023/07/25 20:45:44;;;;;;;6.50;3.97;;;18.90;99.90;;;;;;10058661;28;20454;-70
2023/07/25 20:50:35;;;;;;;6.60;3.88;;;18.90;99.90;;;;;;10059473;28;20053;-70
2023/07/25 20:55:25;;;;;;;7.47;4.07;;;18.90;99.90;;;;;;10067151;28;20038;-69
2023/07/25 21:00:16;;;;;;;4.78;2.95;;;18.90;99.90;;;;;;10045328;28;20144;-70
2023/07/25 21:05:07;;;;;;;5.43;3.53;;;19.00;99.90;;;;;;10050936;28;20064;-70
2023/07/25 21:09:58;;;;;;;4.40;3.50;;;18.90;99.90;;;;;;10058493;28;20021;-71
2023/07/25 21:14:49;;;;;;;6.18;3.85;;;18.80;99.90;;;;;;10054572;28;20045;-70
2023/07/25 21:19:39;;;;;;;4.43;3.60;;;18.80;99.90;;;;;;10067992;28;20467;-70
2023/07/25 21:24:32;;;;;;;3.67;3.20;;;18.90;99.90;;;;;;10066116;28;20033;-70
2023/07/25 21:29:23;;;;;;;4.57;3.35;;;18.80;99.90;;;;;;10060647;28;20036;-71
2023/07/25 21:34:13;;;;;;;4.20;3.30;;;18.80;99.90;;;;;;10055476;28;20113;-71
2023/07/25 21:39:05;;;;;;;3.97;2.85;;;18.80;99.90;;;;;;10049139;28;20381;-69
2023/07/25 21:43:56;;;;;;;4.45;2.90;;;18.70;99.90;;;;;;10054285;28;20100;-70
2023/07/25 21:48:46;;;;;;;3.85;2.63;;;18.60;99.90;;;;;;10054321;28;20076;-69
2023/07/25 21:53:37;;;;;;;4.28;3.20;;;18.50;99.90;;;;;;10057348;28;20107;-71
2023/07/25 21:58:28;;;;;;;4.00;2.85;;;18.60;99.90;;;;;;10051715;28;20033;-69
2023/07/25 22:03:18;;;;;;;4.13;2.50;;;18.60;99.90;;;;;;10054668;28;20048;-69
2023/07/25 22:08:09;;;;;;;3.65;2.90;;;18.70;99.90;;;;;;10055834;28;20040;-69
2023/07/25 22:12:59;;;;;;;6.93;2.88;;;18.70;99.90;;;;;;10065047;28;20046;-69
2023/07/25 22:17:50;;;;;;;4.15;3.13;;;18.60;99.90;;;;;;10057073;28;20038;-74
2023/07/25 22:22:41;;;;;;;3.47;2.42;;;18.60;99.90;;;;;;10058121;28;20061;-69
2023/07/25 22:27:32;;;;;;;3.30;2.47;;;18.50;99.90;;;;;;10056104;28;20506;-69
2023/07/25 22:32:23;;;;;;;4.53;3.17;;;18.50;99.90;;;;;;10056335;28;20454;-69
2023/07/25 22:37:14;;;;;;;3.78;2.40;;;18.50;99.90;;;;;;10071508;28;20433;-69
2023/07/25 22:42:04;;;;;;;2.50;2.30;;;18.50;99.90;;;;;;10055805;28;20093;-70
2023/07/25 22:46:55;;;;;;;2.95;2.22;;;18.50;99.90;;;;;;10055984;28;20033;-68
2023/07/25 22:51:46;;;;;;;3.33;2.10;;;18.50;99.90;;;;;;10055852;28;20045;-68
2023/07/25 22:56:36;;;;;;;3.17;2.10;;;18.50;99.90;;;;;;10055457;28;20033;-69
2023/07/25 23:01:27;;;;;;;3.95;2.08;;;18.70;99.90;;;;;;10058161;28;20030;-69
2023/07/25 23:06:17;;;;;;;3.17;2.55;;;18.70;99.90;;;;;;10068798;28;20033;-68
2023/07/25 23:11:10;;;;;;;3.70;2.28;;;18.70;99.90;;;;;;10074035;28;20533;-70
2023/07/25 23:16:00;;;;;;;2.33;1.83;;;18.70;99.90;;;;;;10062339;28;20044;-70
2023/07/25 23:20:51;;;;;;;2.40;2.17;;;18.70;99.90;;;;;;10062211;28;20033;-68
2023/07/25 23:25:42;;;;;;;3.00;2.40;;;18.60;99.90;;;;;;10059649;28;20098;-70
2023/07/25 23:30:33;;;;;;;3.10;2.03;;;18.60;99.90;;;;;;10062300;28;20463;-69
2023/07/25 23:35:24;;;;;;;4.13;1.98;;;18.50;99.90;;;;;;10073194;28;20037;-68
2023/07/25 23:40:14;;;;;;;3.20;2.70;;;18.50;99.90;;;;;;10061667;28;20042;-68
2023/07/25 23:45:05;;;;;;;3.33;2.28;;;18.40;99.90;;;;;;10063087;28;20033;-68
2023/07/25 23:49:56;;;;;;;3.17;2.35;;;18.40;99.90;;;;;;10060233;28;20039;-68
2023/07/25 23:54:47;;;;;;;4.28;2.85;;;18.40;99.90;;;;;;10072230;28;20086;-68
2023/07/25 23:59:38;;;;;;;3.17;2.28;;;18.40;99.90;;;;;;10064116;28;20048;-68
